createdAt,value
2023-02-12T00:01:36.176Z,22.83
2023-02-12T00:04:04.965Z,24.57
2023-02-12T00:06:33.263Z,24.20
2023-02-12T00:09:01.544Z,23.03
2023-02-12T00:11:31.181Z,24.87
2023-02-12T00:14:03.320Z,23.67
2023-02-12T00:16:31.676Z,23.20
2023-02-12T00:19:01.354Z,22.93
2023-02-12T00:21:29.969Z,25.27
2023-02-12T00:23:58.846Z,23.43
2023-02-12T00:26:27.263Z,23.80
2023-02-12T00:28:56.252Z,22.53
2023-02-12T00:31:28.561Z,22.90
2023-02-12T00:33:57.769Z,24.10
2023-02-12T00:36:29.715Z,24.87
2023-02-12T00:38:58.616Z,23.70
2023-02-12T00:41:28.019Z,24.63
2023-02-12T00:43:56.321Z,21.93
2023-02-12T00:46:26.129Z,25.37
2023-02-12T00:48:54.458Z,23.73
2023-02-12T00:51:23.088Z,21.87
2023-02-12T00:53:51.377Z,25.40
2023-02-12T00:56:19.828Z,24.63
2023-02-12T00:58:48.067Z,25.33
2023-02-12T01:01:17.856Z,23.93
2023-02-12T01:03:47.511Z,24.17
2023-02-12T01:06:15.817Z,26.43
2023-02-12T01:08:44.012Z,23.13
2023-02-12T01:11:14.951Z,24.37
2023-02-12T01:13:43.417Z,29.13
2023-02-12T01:16:17.333Z,27.13
2023-02-12T01:18:47.917Z,24.37
2023-02-12T01:21:19.117Z,23.87
2023-02-12T01:23:47.997Z,25.07
2023-02-12T01:26:18.112Z,27.70
2023-02-12T01:28:52.039Z,23.80
2023-02-12T01:31:24.177Z,26.77
2023-02-12T01:33:56.028Z,24.73
2023-02-12T01:36:25.148Z,24.55
2023-02-12T01:38:53.980Z,25.10
2023-02-12T01:41:25.187Z,24.37
2023-02-12T01:44:17.421Z,27.53
2023-02-12T01:46:47.849Z,26.03
2023-02-12T01:49:22.420Z,29.60
2023-02-12T01:51:55.331Z,26.70
2023-02-12T01:54:26.759Z,26.10
2023-02-12T01:56:55.437Z,27.37
2023-02-12T01:59:24.195Z,28.20
2023-02-12T02:01:52.652Z,27.67
2023-02-12T02:04:27.084Z,25.40
2023-02-12T02:06:59.406Z,28.60
2023-02-12T02:09:30.027Z,25.13
2023-02-12T02:12:16.214Z,26.30
2023-02-12T02:14:45.536Z,25.50
2023-02-12T02:17:45.134Z,26.60
2023-02-12T02:21:16.443Z,27.57
2023-02-12T02:24:28.172Z,30.27
2023-02-12T02:27:16.312Z,24.80
2023-02-12T02:30:24.359Z,26.37
2023-02-12T02:33:04.042Z,24.67
2023-02-12T02:35:41.546Z,27.97
2023-02-12T02:38:21.749Z,25.50
2023-02-12T02:40:58.018Z,24.33
2023-02-12T02:43:30.872Z,25.90
2023-02-12T02:46:07.400Z,27.03
2023-02-12T02:48:38.867Z,27.50
2023-02-12T02:51:13.466Z,33.27
2023-02-12T02:53:47.712Z,29.33
2023-02-12T02:56:20.465Z,28.13
2023-02-12T02:58:54.472Z,30.20
2023-02-12T03:01:29.591Z,28.67
2023-02-12T03:04:04.400Z,29.10
2023-02-12T03:06:40.215Z,29.60
2023-02-12T03:09:19.642Z,29.90
2023-02-12T03:11:48.397Z,28.30
2023-02-12T03:14:22.052Z,28.70
2023-02-12T03:16:59.466Z,31.77
2023-02-12T03:19:32.224Z,31.13
2023-02-12T03:22:05.910Z,30.63
2023-02-12T03:24:37.473Z,30.90
2023-02-12T03:27:11.299Z,30.63
2023-02-12T03:29:39.832Z,32.17
2023-02-12T03:32:26.148Z,27.83
2023-02-12T03:35:07.894Z,29.00
2023-02-12T03:37:42.335Z,28.67
2023-02-12T03:40:18.521Z,28.77
2023-02-12T03:42:54.989Z,30.63
2023-02-12T03:45:39.597Z,29.00
2023-02-12T03:48:15.210Z,29.20
2023-02-12T03:50:52.027Z,30.33
2023-02-12T03:53:20.468Z,33.40
2023-02-12T03:55:55.961Z,28.17
2023-02-12T03:58:28.537Z,29.23
2023-02-12T04:00:57.489Z,28.43
2023-02-12T04:03:27.409Z,31.33
2023-02-12T04:05:55.906Z,27.27
2023-02-12T04:08:25.682Z,32.07
2023-02-12T04:11:11.993Z,33.90
2023-02-12T04:13:52.966Z,28.97
2023-02-12T04:16:28.088Z,29.80
2023-02-12T04:18:58.395Z,30.10
2023-02-12T04:21:45.746Z,33.27
2023-02-12T04:24:26.212Z,33.13
2023-02-12T04:26:59.161Z,29.43
2023-02-12T04:29:35.998Z,27.77
2023-02-12T04:32:10.542Z,29.50
2023-02-12T04:34:50.658Z,30.67
2023-02-12T04:37:24.244Z,32.17
2023-02-12T04:39:54.340Z,30.20
2023-02-12T04:42:22.991Z,28.43
2023-02-12T04:44:51.232Z,30.90
2023-02-12T04:47:19.496Z,30.40
2023-02-12T04:49:49.094Z,34.10
2023-02-12T04:52:17.453Z,32.57
2023-02-12T04:54:45.978Z,32.23
2023-02-12T04:57:14.226Z,35.13
2023-02-12T04:59:42.428Z,31.60
2023-02-12T05:02:10.682Z,37.30
2023-02-12T05:04:38.963Z,33.83
2023-02-12T05:07:08.632Z,36.00
2023-02-12T05:09:36.933Z,33.47
2023-02-12T05:12:05.464Z,30.53
2023-02-12T05:14:33.700Z,32.57
2023-02-12T05:17:01.961Z,32.80
2023-02-12T05:19:30.192Z,34.60
2023-02-12T05:21:58.429Z,32.77
2023-02-12T05:24:28.132Z,37.13
2023-02-12T05:26:56.459Z,34.87
2023-02-12T05:29:24.950Z,31.10
2023-02-12T05:31:53.220Z,31.23
2023-02-12T05:34:21.554Z,32.47
2023-02-12T05:36:49.988Z,32.83
2023-02-12T05:39:18.792Z,32.30
2023-02-12T05:41:48.489Z,34.40
2023-02-12T05:44:16.763Z,34.83
2023-02-12T05:46:45.643Z,34.23
2023-02-12T05:49:14.009Z,36.57
2023-02-12T05:51:42.293Z,36.47
2023-02-12T05:54:11.370Z,35.63
2023-02-12T05:56:45.050Z,40.73
2023-02-12T05:59:20.195Z,32.63
2023-02-12T06:01:51.145Z,34.17
2023-02-12T06:04:21.604Z,34.03
2023-02-12T06:06:49.947Z,37.97
2023-02-12T06:09:18.297Z,36.60
2023-02-12T06:11:46.801Z,34.87
2023-02-12T06:14:19.802Z,33.60
2023-02-12T06:16:50.213Z,35.77
2023-02-12T06:19:19.897Z,37.17
2023-02-12T06:21:48.698Z,35.17
2023-02-12T06:24:18.230Z,37.27
2023-02-12T06:26:47.218Z,37.97
2023-02-12T06:29:16.864Z,36.53
2023-02-12T06:31:45.381Z,36.33
2023-02-12T06:34:16.744Z,37.10
2023-02-12T06:36:46.892Z,37.73
2023-02-12T06:39:17.234Z,39.07
2023-02-12T06:41:45.657Z,37.87
2023-02-12T06:44:16.111Z,39.87
2023-02-12T06:46:44.524Z,38.33
2023-02-12T06:49:16.277Z,40.80
2023-02-12T06:51:44.579Z,36.17
2023-02-12T06:54:16.582Z,37.10
2023-02-12T06:56:45.835Z,39.70
2023-02-12T06:59:17.772Z,38.17
2023-02-12T07:01:46.287Z,40.03
2023-02-12T07:04:14.816Z,37.13
2023-02-12T07:06:43.171Z,35.63
2023-02-12T07:09:11.460Z,39.63
2023-02-12T07:11:40.107Z,38.33
2023-02-12T07:14:08.913Z,41.50
2023-02-12T07:16:38.832Z,37.83
2023-02-12T07:19:07.128Z,37.07
2023-02-12T07:21:35.365Z,38.40
2023-02-12T07:24:03.665Z,38.17
2023-02-12T07:26:31.915Z,40.63
2023-02-12T07:29:00.155Z,40.80
2023-02-12T07:31:28.809Z,38.27
2023-02-12T07:34:00.236Z,39.10
2023-02-12T07:36:31.596Z,38.40
2023-02-12T07:39:01.632Z,41.77
2023-02-12T07:41:32.097Z,43.50
2023-02-12T07:44:06.770Z,40.80
2023-02-12T07:46:38.128Z,46.37
2023-02-12T07:49:10.822Z,42.90
2023-02-12T07:51:39.196Z,41.50
2023-02-12T07:54:07.655Z,37.87
2023-02-12T07:56:39.003Z,41.80
2023-02-12T07:59:11.094Z,42.33
2023-02-12T08:01:41.944Z,43.77
2023-02-12T08:04:15.138Z,46.53
2023-02-12T08:06:45.823Z,43.47
2023-02-12T08:09:18.687Z,44.40
2023-02-12T08:11:47.391Z,46.83
2023-02-12T08:14:19.364Z,55.43
2023-02-12T08:16:49.675Z,48.83
2023-02-12T08:19:23.964Z,48.50
2023-02-12T08:21:58.423Z,51.20
2023-02-12T08:24:27.001Z,52.20
2023-02-12T08:26:55.273Z,45.80
2023-02-12T08:29:25.960Z,46.33
2023-02-12T08:31:58.915Z,45.03
2023-02-12T08:34:31.306Z,47.60
2023-02-12T08:37:00.392Z,43.00
2023-02-12T08:39:31.238Z,47.33
2023-02-12T08:42:01.160Z,45.70
2023-02-12T08:44:29.890Z,44.03
2023-02-12T08:46:58.221Z,46.37
2023-02-12T08:49:30.098Z,43.60
2023-02-12T08:52:01.766Z,45.83
2023-02-12T08:54:32.694Z,48.40
2023-02-12T08:57:03.165Z,48.73
2023-02-12T08:59:32.156Z,51.43
2023-02-12T09:02:00.790Z,52.17
2023-02-12T09:04:31.271Z,49.30
2023-02-12T09:06:59.656Z,53.80
2023-02-12T09:09:28.024Z,49.40
2023-02-12T09:11:56.329Z,54.20
2023-02-12T09:14:25.312Z,56.50
2023-02-12T09:16:54.274Z,56.17
2023-02-12T09:19:22.831Z,51.43
2023-02-12T09:21:56.135Z,58.03
2023-02-12T09:24:27.504Z,59.37
2023-02-12T09:26:56.102Z,53.37
2023-02-12T09:29:24.425Z,53.87
2023-02-12T09:31:52.952Z,52.37
2023-02-12T09:34:21.388Z,55.37
2023-02-12T09:36:49.639Z,51.70
2023-02-12T09:39:19.288Z,54.47
2023-02-12T09:42:18.876Z,55.97
2023-02-12T09:44:52.788Z,48.43
2023-02-12T09:47:28.712Z,53.57
2023-02-12T09:50:32.961Z,51.00
2023-02-12T09:53:01.908Z,51.13
2023-02-12T09:55:34.827Z,47.93
2023-02-12T09:58:10.302Z,49.90
2023-02-12T10:00:38.569Z,52.33
2023-02-12T10:03:16.060Z,49.93
2023-02-12T10:05:49.418Z,44.00
2023-02-12T10:09:01.410Z,46.43
2023-02-12T10:11:53.157Z,46.87
2023-02-12T10:15:15.346Z,44.90
2023-02-12T10:17:50.320Z,45.10
2023-02-12T10:20:54.325Z,43.07
2023-02-12T10:23:59.382Z,41.37
2023-02-12T10:26:32.076Z,49.10
2023-02-12T10:29:33.119Z,38.97
2023-02-12T10:32:06.789Z,43.00
2023-02-12T10:34:37.839Z,43.57
2023-02-12T10:37:12.956Z,48.70
2023-02-12T10:39:49.158Z,58.27
2023-02-12T10:42:22.630Z,48.80
2023-02-12T10:44:52.418Z,47.03
2023-02-12T10:47:23.563Z,52.13
2023-02-12T10:49:59.260Z,53.73
2023-02-12T10:52:40.809Z,49.77
2023-02-12T10:55:27.255Z,47.13
2023-02-12T10:57:56.700Z,47.70
2023-02-12T11:00:31.917Z,50.43
2023-02-12T11:03:23.796Z,48.73
2023-02-12T11:05:52.100Z,48.80
2023-02-12T11:08:36.525Z,51.00
2023-02-12T11:11:10.351Z,46.03
2023-02-12T11:13:41.527Z,47.70
2023-02-12T11:16:12.336Z,51.03
2023-02-12T11:18:40.681Z,45.67
2023-02-12T11:21:11.251Z,39.07
2023-02-12T11:23:42.862Z,36.90
2023-02-12T11:26:28.684Z,36.87
2023-02-12T11:29:00.517Z,40.23
2023-02-12T11:31:32.368Z,38.23
2023-02-12T11:34:16.587Z,40.00
2023-02-12T11:36:47.319Z,45.17
2023-02-12T11:39:22.709Z,40.97
2023-02-12T11:41:54.850Z,37.60
2023-02-12T11:44:27.731Z,38.40
2023-02-12T11:47:02.200Z,36.47
2023-02-12T11:49:34.238Z,38.97
2023-02-12T11:52:05.964Z,36.60
2023-02-12T11:54:41.893Z,36.73
2023-02-12T11:57:39.326Z,38.80
2023-02-12T12:00:16.695Z,39.20
2023-02-12T12:02:51.873Z,41.43
2023-02-12T12:05:22.637Z,47.33
2023-02-12T12:07:57.012Z,43.37
2023-02-12T12:10:35.618Z,37.77
2023-02-12T12:13:12.302Z,38.00
2023-02-12T12:16:03.573Z,37.43
2023-02-12T12:18:58.539Z,39.07
2023-02-12T12:21:35.390Z,38.23
2023-02-12T12:24:12.715Z,39.30
2023-02-12T12:26:47.140Z,37.07
2023-02-12T12:29:22.018Z,37.87
2023-02-12T12:31:54.844Z,37.73
2023-02-12T12:34:26.947Z,37.53
2023-02-12T12:37:20.987Z,34.33
2023-02-12T12:40:14.497Z,36.37
2023-02-12T12:43:09.616Z,32.47
2023-02-12T12:46:14.229Z,35.17
2023-02-12T12:49:22.196Z,35.90
2023-02-12T12:52:09.387Z,40.67
2023-02-12T12:54:57.100Z,35.30
2023-02-12T12:57:40.876Z,36.57
2023-02-12T13:00:36.454Z,33.67
2023-02-12T13:03:45.215Z,33.47
2023-02-12T13:06:38.031Z,34.30
2023-02-12T13:09:28.895Z,34.23
2023-02-12T13:12:34.246Z,32.60
2023-02-12T13:15:11.627Z,32.13
2023-02-12T13:17:46.349Z,34.50
2023-02-12T13:20:24.242Z,33.27
2023-02-12T13:23:00.657Z,30.93
2023-02-12T13:25:37.111Z,31.60
2023-02-12T13:28:07.288Z,35.07
2023-02-12T13:30:44.301Z,31.13
2023-02-12T13:33:18.098Z,30.83
2023-02-12T13:35:49.357Z,32.20
2023-02-12T13:38:24.352Z,34.30
2023-02-12T13:40:57.651Z,29.67
2023-02-12T13:43:45.689Z,29.47
2023-02-12T13:46:22.865Z,26.87
2023-02-12T13:49:02.654Z,58.43
2023-02-12T13:51:42.800Z,32.87
2023-02-12T13:54:48.155Z,33.50
2023-02-12T13:57:23.060Z,29.63
2023-02-12T13:59:53.805Z,26.50
2023-02-12T14:02:53.034Z,32.07
2023-02-12T14:05:28.923Z,32.60
2023-02-12T14:08:00.699Z,30.37
2023-02-12T14:10:34.319Z,29.03
2023-02-12T14:13:19.186Z,32.33
2023-02-12T14:15:51.290Z,34.37
2023-02-12T14:18:35.775Z,27.67
2023-02-12T14:21:44.417Z,30.07
2023-02-12T14:24:53.214Z,32.10
2023-02-12T14:27:38.467Z,29.00
2023-02-12T14:33:25.184Z,32.67
2023-02-12T14:36:21.182Z,30.70
2023-02-12T14:39:01.668Z,32.50
2023-02-12T14:41:38.792Z,28.67
2023-02-12T14:44:46.386Z,28.93
2023-02-12T14:47:56.044Z,31.23
2023-02-12T14:50:31.807Z,29.10
2023-02-12T14:53:21.296Z,25.60
2023-02-12T14:55:50.789Z,26.17
2023-02-12T14:58:22.042Z,25.93
2023-02-12T15:00:56.105Z,25.50
2023-02-12T15:03:33.068Z,28.33
2023-02-12T15:06:16.367Z,29.20
2023-02-12T15:08:50.801Z,24.17
2023-02-12T15:11:29.553Z,25.47
2023-02-12T15:14:05.872Z,26.27
2023-02-12T15:16:44.759Z,25.07
2023-02-12T15:19:35.567Z,27.50
2023-02-12T15:22:05.166Z,27.70
2023-02-12T15:24:33.413Z,26.70
2023-02-12T15:27:02.082Z,26.80
2023-02-12T15:29:36.802Z,24.53
2023-02-12T15:32:09.817Z,29.60
2023-02-12T15:34:41.853Z,25.30
2023-02-12T15:37:19.857Z,25.57
2023-02-12T15:39:48.963Z,24.17
2023-02-12T15:42:30.294Z,28.67
2023-02-12T15:45:22.110Z,29.00
2023-02-12T15:48:10.884Z,26.17
2023-02-12T15:50:51.347Z,26.73
2023-02-12T15:53:21.755Z,29.83
2023-02-12T15:55:51.239Z,62.27
2023-02-12T15:58:24.529Z,40.53
2023-02-12T16:00:54.807Z,35.67
2023-02-12T16:03:26.989Z,34.97
2023-02-12T16:06:02.612Z,35.87
2023-02-12T16:08:34.780Z,28.47
2023-02-12T16:11:13.849Z,29.77
2023-02-12T16:13:46.896Z,30.10
2023-02-12T16:16:25.524Z,30.03
2023-02-12T16:19:09.603Z,42.97
2023-02-12T16:21:40.291Z,42.10
2023-02-12T16:24:27.465Z,34.57
2023-02-12T16:26:56.347Z,32.97
2023-02-12T16:29:25.091Z,40.70
2023-02-12T16:31:59.118Z,39.57
2023-02-12T16:34:37.101Z,35.93
2023-02-12T16:37:45.800Z,36.60
2023-02-12T16:40:30.909Z,34.60
2023-02-12T16:43:07.914Z,41.20
2023-02-12T16:45:42.629Z,39.73
2023-02-12T16:48:19.209Z,39.07
2023-02-12T16:50:51.957Z,37.90
2023-02-12T16:53:47.400Z,36.67
2023-02-12T16:56:21.136Z,40.13
2023-02-12T16:58:52.094Z,40.83
2023-02-12T17:01:24.513Z,49.37
2023-02-12T17:03:53.485Z,49.90
2023-02-12T17:06:23.409Z,47.80
2023-02-12T17:08:52.107Z,42.47
2023-02-12T17:11:23.261Z,39.03
2023-02-12T17:13:53.896Z,35.80
2023-02-12T17:16:32.055Z,29.07
2023-02-12T17:19:00.887Z,30.73
2023-02-12T17:21:31.124Z,35.23
2023-02-12T17:23:59.611Z,37.37
2023-02-12T17:26:29.274Z,38.97
2023-02-12T17:29:05.151Z,38.50
2023-02-12T17:31:33.839Z,38.20
2023-02-12T17:34:02.447Z,35.03
2023-02-12T17:36:30.837Z,34.87
2023-02-12T17:38:59.084Z,35.40
2023-02-12T17:41:28.758Z,33.77
2023-02-12T17:43:57.033Z,36.20
2023-02-12T17:46:28.304Z,31.10
2023-02-12T17:48:56.871Z,28.23
2023-02-12T17:51:25.674Z,25.57
2023-02-12T17:53:54.279Z,27.90
2023-02-12T17:56:25.622Z,27.93
2023-02-12T17:58:55.237Z,29.53
2023-02-12T18:01:24.930Z,27.77
2023-02-12T18:03:55.554Z,28.20
2023-02-12T18:06:28.422Z,27.80
2023-02-12T18:08:58.488Z,27.00
2023-02-12T18:11:27.785Z,30.03
2023-02-12T18:13:59.285Z,27.67
2023-02-12T18:16:31.877Z,29.87
2023-02-12T18:19:01.352Z,31.43
2023-02-12T18:21:29.580Z,31.30
2023-02-12T18:23:57.858Z,33.27
2023-02-12T18:26:26.123Z,34.77
2023-02-12T18:28:54.933Z,26.80
2023-02-12T18:31:24.652Z,31.50
2023-02-12T18:33:54.334Z,35.47
2023-02-12T18:36:23.607Z,29.57
2023-02-12T18:38:52.965Z,28.37
2023-02-12T18:41:24.222Z,30.47
2023-02-12T18:43:52.866Z,27.40
2023-02-12T18:46:25.708Z,31.73
2023-02-12T18:48:54.674Z,31.20
2023-02-12T18:51:25.995Z,34.53
2023-02-12T18:53:57.141Z,32.27
2023-02-12T18:56:25.687Z,31.83
2023-02-12T18:58:57.637Z,31.77
2023-02-12T19:01:28.578Z,38.87
2023-02-12T19:04:00.130Z,46.47
2023-02-12T19:06:29.108Z,40.80
2023-02-12T19:08:58.455Z,39.20
2023-02-12T19:11:28.133Z,46.90
2023-02-12T19:13:56.931Z,29.70
2023-02-12T19:16:27.594Z,33.00
2023-02-12T19:19:00.010Z,28.33
2023-02-12T19:21:28.335Z,28.97
2023-02-12T19:24:01.339Z,28.37
2023-02-12T19:26:31.089Z,36.03
2023-02-12T19:28:59.740Z,42.07
2023-02-12T19:31:32.535Z,38.37
2023-02-12T19:34:06.544Z,33.97
2023-02-12T19:36:37.472Z,40.43
2023-02-12T19:39:06.959Z,38.33
2023-02-12T19:41:40.826Z,30.50
2023-02-12T19:44:12.801Z,33.47
2023-02-12T19:46:43.017Z,35.80
2023-02-12T19:49:17.996Z,32.47
2023-02-12T19:51:46.558Z,32.77
2023-02-12T19:54:17.412Z,37.53
2023-02-12T19:56:46.554Z,28.40
2023-02-12T19:59:17.234Z,30.37
2023-02-12T20:01:48.304Z,32.20
2023-02-12T20:04:21.559Z,29.20
2023-02-12T20:06:50.957Z,27.23
2023-02-12T20:09:20.594Z,24.30
2023-02-12T20:11:49.411Z,28.30
2023-02-12T20:14:18.287Z,28.50
2023-02-12T20:16:48.385Z,28.13
2023-02-12T20:19:20.941Z,27.47
2023-02-12T20:21:54.298Z,27.70
2023-02-12T20:24:23.054Z,28.60
2023-02-12T20:26:51.853Z,37.13
2023-02-12T20:29:20.484Z,40.17
2023-02-12T20:31:50.645Z,36.37
2023-02-12T20:34:22.134Z,34.50
2023-02-12T20:36:50.669Z,41.90
2023-02-12T20:39:21.088Z,45.77
2023-02-12T20:41:50.420Z,39.40
2023-02-12T20:44:21.757Z,124.07
2023-02-12T20:46:56.402Z,115.77
2023-02-12T20:49:26.073Z,116.67
2023-02-12T20:51:54.332Z,120.30
2023-02-12T20:54:22.808Z,136.87
2023-02-12T20:56:51.532Z,84.53
2023-02-12T20:59:20.391Z,97.23
2023-02-12T21:01:50.456Z,87.93
2023-02-12T21:04:20.675Z,77.97
2023-02-12T21:06:49.582Z,76.37
2023-02-12T21:09:18.729Z,83.53
2023-02-12T21:11:47.500Z,73.30
2023-02-12T21:14:24.883Z,66.77
2023-02-12T21:16:56.909Z,66.53
2023-02-12T21:19:26.561Z,57.67
2023-02-12T21:21:55.307Z,64.87
2023-02-12T21:24:26.454Z,68.17
2023-02-12T21:26:56.841Z,64.13
2023-02-12T21:29:26.708Z,70.53
2023-02-12T21:31:56.481Z,65.47
2023-02-12T21:34:25.209Z,67.70
2023-02-12T21:36:55.877Z,67.47
2023-02-12T21:39:27.760Z,69.07
2023-02-12T21:41:58.296Z,72.53
2023-02-12T21:44:27.674Z,61.90
2023-02-12T21:46:58.637Z,71.33
2023-02-12T21:49:28.174Z,58.33
2023-02-12T21:51:58.558Z,64.50
2023-02-12T21:54:27.886Z,79.97
2023-02-12T21:56:56.908Z,57.03
2023-02-12T21:59:26.529Z,54.40
2023-02-12T22:01:58.592Z,60.67
2023-02-12T22:04:27.653Z,47.60
2023-02-12T22:06:56.584Z,33.43
2023-02-12T22:09:25.052Z,30.07
2023-02-12T22:11:53.870Z,26.00
2023-02-12T22:14:23.498Z,27.13
2023-02-12T22:16:52.098Z,33.37
2023-02-12T22:19:21.768Z,27.67
2023-02-12T22:21:52.575Z,26.50
2023-02-12T22:24:21.871Z,29.83
2023-02-12T22:26:50.316Z,26.23
2023-02-12T22:29:18.687Z,28.70
2023-02-12T22:31:48.540Z,26.47
2023-02-12T22:34:18.980Z,26.60
2023-02-12T22:36:49.221Z,27.90
2023-02-12T22:39:18.522Z,28.03
2023-02-12T22:41:47.067Z,27.43
2023-02-12T22:44:17.398Z,26.17
2023-02-12T22:46:46.630Z,28.10
2023-02-12T22:49:15.209Z,30.77
2023-02-12T22:51:43.750Z,28.03
2023-02-12T22:54:15.929Z,28.13
2023-02-12T22:56:45.014Z,30.17
2023-02-12T22:59:14.091Z,26.47
2023-02-12T23:01:43.363Z,28.87
2023-02-12T23:04:16.284Z,39.30
2023-02-12T23:06:45.208Z,27.77
2023-02-12T23:09:17.996Z,29.37
2023-02-12T23:11:46.768Z,33.07
2023-02-12T23:14:15.256Z,31.50
2023-02-12T23:16:43.660Z,26.57
2023-02-12T23:19:12.516Z,29.70
2023-02-12T23:21:41.207Z,30.33
2023-02-12T23:24:15.041Z,29.63
2023-02-12T23:26:43.474Z,27.73
2023-02-12T23:29:11.745Z,28.03
2023-02-12T23:31:40.249Z,31.27
2023-02-12T23:34:08.566Z,30.00
2023-02-12T23:36:36.825Z,28.17
2023-02-12T23:39:06.104Z,30.43
2023-02-12T23:41:35.906Z,28.43
2023-02-12T23:44:04.312Z,37.37
2023-02-12T23:46:32.809Z,28.20
2023-02-12T23:49:01.126Z,27.00
2023-02-12T23:51:29.488Z,25.10
2023-02-12T23:53:57.953Z,29.53
2023-02-12T23:56:26.684Z,30.13
2023-02-12T23:58:58.388Z,36.20
